Time;durP1;ratioP1;P1;durP2;ratioP2;P2;SDS_P1;SDS_P2;PMS_P1;PMS_P2;Temp;Humidity;BMP_temperature;BMP_pressure;BME280_temperature;BME280_humidity;BME280_pressure;Samples;Min_cycle;Max_cycle;Signal;HPM_P1;HPM_P2
2022/06/28 00:00:24;;;;;;;;;;;;;;;18.87;65.03;98427.25;5058816;28;20006;-65
2022/06/28 00:02:52;;;;;;;;;;;;;;;18.89;65.67;98433.19;5062087;28;20022;-66
2022/06/28 00:05:22;;;;;;;;;;;;;;;18.91;64.95;98433.63;5063810;28;19924;-66
2022/06/28 00:07:50;;;;;;;;;;;;;;;18.93;64.77;98434.06;5059670;28;20260;-63
2022/06/28 00:10:18;;;;;;;;;;;;;;;18.91;64.94;98436.38;5053893;28;19925;-65
2022/06/28 00:12:46;;;;;;;;;;;;;;;18.85;64.37;98430.31;5060332;28;19927;-66
2022/06/28 00:17:59;;;;;;;;;;;;;;;18.81;64.56;98418.44;5055934;28;19944;-66
2022/06/28 00:20:29;;;;;;;;;;;;;;;18.84;63.99;98414.97;5059279;28;19920;-66
2022/06/28 00:22:57;;;;;;;;;;;;;;;18.82;64.37;98431.03;5064748;28;19920;-65
2022/06/28 00:25:25;;;;;;;;;;;;;;;18.71;63.99;98416.19;5060324;28;20005;-65
2022/06/28 00:27:53;;;;;;;;;;;;;;;18.64;63.99;98419.50;5057558;28;20275;-63
2022/06/28 00:30:22;;;;;;;;;;;;;;;18.63;64.31;98412.41;5061070;28;19990;-65
2022/06/28 00:33:15;;;;;;;;;;;;;;;18.57;64.64;98413.81;5060550;28;19934;-60
2022/06/28 00:35:44;;;;;;;;;;;;;;;18.49;64.35;98412.03;5060284;28;20205;-65
2022/06/28 00:38:12;;;;;;;;;;;;;;;18.43;65.00;98410.66;5060062;28;20190;-65
2022/06/28 00:40:46;;;;;;;;;;;;;;;18.39;64.58;98427.09;5061982;28;19920;-60
2022/06/28 00:43:14;;;;;;;;;;;;;;;18.37;64.87;98410.13;5056743;28;19947;-66
2022/06/28 00:45:42;;;;;;;;;;;;;;;18.37;64.73;98401.06;5062769;28;20046;-66
2022/06/28 00:48:10;;;;;;;;;;;;;;;18.25;64.81;98408.22;5061238;28;19928;-65
2022/06/28 00:50:39;;;;;;;;;;;;;;;18.29;64.84;98406.38;5062513;28;19920;-66
2022/06/28 00:53:09;;;;;;;;;;;;;;;18.29;64.83;98409.13;5074839;28;20352;-65
2022/06/28 00:55:37;;;;;;;;;;;;;;;18.24;64.90;98414.09;5075894;28;19924;-65
2022/06/28 00:58:06;;;;;;;;;;;;;;;18.27;64.96;98413.41;5063847;28;19924;-65
2022/06/28 01:00:35;;;;;;;;;;;;;;;18.25;65.13;98421.97;5061880;28;21054;-65
2022/06/28 01:03:06;;;;;;;;;;;;;;;18.17;65.31;98428.44;5076550;28;19928;-65
2022/06/28 01:05:35;;;;;;;;;;;;;;;18.19;65.71;98426.13;5059490;28;19920;-65
2022/06/28 01:08:29;;;;;;;;;;;;;;;18.16;65.67;98437.00;5055654;28;19996;-65
2022/06/28 01:11:18;;;;;;;;;;;;;;;18.16;65.68;98440.56;5060925;28;20407;-65
2022/06/28 01:14:13;;;;;;;;;;;;;;;18.15;65.76;98454.66;5060168;28;19935;-65
2022/06/28 01:17:33;;;;;;;;;;;;;;;18.15;65.90;98454.66;5070530;28;19920;-64
2022/06/28 01:20:22;;;;;;;;;;;;;;;18.12;65.97;98458.13;5059364;28;19970;-65
2022/06/28 01:23:09;;;;;;;;;;;;;;;18.09;66.21;98465.09;5058316;28;19921;-65
2022/06/28 01:25:37;;;;;;;;;;;;;;;18.10;66.31;98479.66;5061933;28;19924;-65
2022/06/28 01:28:06;;;;;;;;;;;;;;;18.13;66.39;98479.78;5064541;28;20281;-61
2022/06/28 01:30:35;;;;;;;;;;;;;;;18.14;66.55;98484.13;5053502;28;20043;-65
2022/06/28 01:33:08;;;;;;;;;;;;;;;18.14;66.53;98478.63;5062171;28;19921;-64
2022/06/28 01:35:37;;;;;;;;;;;;;;;18.14;66.41;98484.13;5103993;28;19931;-65
2022/06/28 01:38:06;;;;;;;;;;;;;;;18.14;66.79;98481.38;5086849;28;19955;-65
2022/06/28 01:40:35;;;;;;;;;;;;;;;18.17;66.66;98479.88;5080583;28;19931;-65
2022/06/28 01:43:04;;;;;;;;;;;;;;;18.15;66.79;98482.97;5101534;28;19926;-64
2022/06/28 01:45:37;;;;;;;;;;;;;;;18.15;66.89;98485.72;5087353;28;19920;-65
2022/06/28 01:48:05;;;;;;;;;;;;;;;18.14;66.94;98477.81;5083416;28;19926;-58
2022/06/28 01:50:57;;;;;;;;;;;;;;;18.04;67.27;98468.91;5085882;28;19919;-63
2022/06/28 01:53:26;;;;;;;;;;;;;;;18.06;67.25;98474.88;5083166;28;19928;-64
2022/06/28 01:56:06;;;;;;;;;;;;;;;18.04;67.50;98473.59;5083755;28;20313;-65
2022/06/28 01:58:51;;;;;;;;;;;;;;;18.04;67.58;98479.91;5084086;28;19980;-65
2022/06/28 02:01:23;;;;;;;;;;;;;;;17.99;67.91;98490.34;5082043;28;19975;-52
2022/06/28 02:03:53;;;;;;;;;;;;;;;17.94;67.66;98491.38;5085483;28;20026;-60
2022/06/28 02:06:36;;;;;;;;;;;;;;;17.86;67.84;98497.00;5089730;28;19927;-65
2022/06/28 02:09:09;;;;;;;;;;;;;;;17.85;68.03;98504.44;5098056;28;20228;-61
2022/06/28 02:11:50;;;;;;;;;;;;;;;17.86;68.03;98502.50;5086762;28;19974;-62
2022/06/28 02:14:24;;;;;;;;;;;;;;;17.88;68.32;98498.25;5081838;28;19920;-64
2022/06/28 02:16:56;;;;;;;;;;;;;;;17.94;68.02;98501.56;5097197;28;19920;-65
2022/06/28 02:19:25;;;;;;;;;;;;;;;17.92;68.10;98503.88;5096389;28;19940;-64
2022/06/28 02:21:54;;;;;;;;;;;;;;;17.95;68.13;98500.41;5100669;28;20390;-65
2022/06/28 02:24:27;;;;;;;;;;;;;;;17.92;68.07;98490.13;5082203;28;20279;-65
2022/06/28 02:27:21;;;;;;;;;;;;;;;17.88;68.23;98480.97;5100800;28;19920;-64
2022/06/28 02:29:55;;;;;;;;;;;;;;;17.88;68.27;98483.69;5084732;28;19920;-65
2022/06/28 02:32:23;;;;;;;;;;;;;;;17.86;68.37;98481.31;5078362;28;19932;-61
2022/06/28 02:40:23;;;;;;;;;;;;;;;17.83;68.37;98479.25;5084449;28;19920;-62
2022/06/28 02:42:53;;;;;;;;;;;;;;;17.80;68.56;98483.50;5087260;28;19932;-66
2022/06/28 02:45:22;;;;;;;;;;;;;;;17.75;68.78;98478.22;5087169;28;19932;-66
2022/06/28 02:47:50;;;;;;;;;;;;;;;17.75;68.66;98475.47;5084901;28;19924;-65
2022/06/28 02:50:19;;;;;;;;;;;;;;;17.71;68.99;98477.28;5079775;28;19925;-65
2022/06/28 02:52:49;;;;;;;;;;;;;;;17.68;68.88;98477.94;5083356;28;19966;-65
2022/06/28 02:55:17;;;;;;;;;;;;;;;17.62;69.10;98473.84;5076975;28;20007;-65
2022/06/28 02:57:46;;;;;;;;;;;;;;;17.62;69.27;98478.53;5086018;28;20298;-65
2022/06/28 03:00:17;;;;;;;;;;;;;;;17.59;69.38;98471.78;5082434;28;20121;-65
2022/06/28 03:02:47;;;;;;;;;;;;;;;17.57;69.50;98476.81;5082456;28;19927;-65
2022/06/28 03:05:17;;;;;;;;;;;;;;;17.57;69.43;98471.31;5078135;28;19920;-64
2022/06/28 03:07:46;;;;;;;;;;;;;;;17.55;69.50;98479.13;5084434;28;20057;-65
2022/06/28 03:10:18;;;;;;;;;;;;;;;17.53;69.56;98476.72;5082559;28;20237;-65
2022/06/28 03:12:46;;;;;;;;;;;;;;;17.54;69.51;98483.81;5089456;28;19929;-64
2022/06/28 03:15:16;;;;;;;;;;;;;;;17.54;69.66;98477.50;5075602;28;19971;-64
2022/06/28 03:17:49;;;;;;;;;;;;;;;17.56;69.48;98477.97;5081269;28;19980;-64
2022/06/28 03:20:18;;;;;;;;;;;;;;;17.58;69.70;98481.19;5084977;28;20030;-65
2022/06/28 03:22:46;;;;;;;;;;;;;;;17.60;69.71;98473.38;5084028;28;20287;-65
2022/06/28 03:25:14;;;;;;;;;;;;;;;17.68;69.45;98471.66;5072377;28;19989;-65
2022/06/28 03:27:42;;;;;;;;;;;;;;;17.63;69.71;98475.47;5080018;28;19932;-65
2022/06/28 03:30:10;;;;;;;;;;;;;;;17.62;69.62;98476.59;5084057;28;19951;-65
2022/06/28 03:32:44;;;;;;;;;;;;;;;17.62;69.42;98484.81;5081016;28;19948;-62
2022/06/28 03:35:38;;;;;;;;;;;;;;;17.62;69.31;98479.34;5079887;28;19944;-64
2022/06/28 03:38:07;;;;;;;;;;;;;;;17.63;69.19;98483.72;5080084;28;19959;-64
2022/06/28 03:40:56;;;;;;;;;;;;;;;17.66;69.31;98485.75;5064352;28;19920;-64
2022/06/28 03:43:25;;;;;;;;;;;;;;;17.64;69.59;98487.25;5082797;28;19996;-59
2022/06/28 03:45:55;;;;;;;;;;;;;;;17.66;69.37;98490.44;5084965;28;19920;-63
2022/06/28 03:48:34;;;;;;;;;;;;;;;17.67;69.56;98479.09;5094643;28;20018;-64
2022/06/28 03:51:21;;;;;;;;;;;;;;;17.63;69.54;98480.13;5080985;28;20032;-66
2022/06/28 03:54:10;;;;;;;;;;;;;;;17.58;69.65;98472.94;5073343;28;19928;-62
2022/06/28 03:56:44;;;;;;;;;;;;;;;17.60;69.53;98478.09;5082100;28;20382;-66
2022/06/28 03:59:13;;;;;;;;;;;;;;;17.59;69.46;98479.22;5082745;28;19928;-65
2022/06/28 04:02:06;;;;;;;;;;;;;;;17.61;69.48;98480.47;5082913;28;19920;-62
2022/06/28 04:05:00;;;;;;;;;;;;;;;17.53;69.64;98497.91;5083535;28;20222;-65
2022/06/28 04:07:28;;;;;;;;;;;;;;;17.52;69.57;98496.28;5082675;28;19924;-67
2022/06/28 04:09:56;;;;;;;;;;;;;;;17.48;69.79;98498.91;5083282;28;19926;-66
2022/06/28 04:12:24;;;;;;;;;;;;;;;17.50;69.77;98510.34;5083382;28;19950;-65
2022/06/28 04:14:56;;;;;;;;;;;;;;;17.52;69.50;98505.34;5080446;28;20334;-63
2022/06/28 04:17:25;;;;;;;;;;;;;;;17.53;69.88;98498.69;5082747;28;20387;-64
2022/06/28 04:20:15;;;;;;;;;;;;;;;17.58;69.53;98510.56;5043353;28;19935;-64
2022/06/28 04:22:58;;;;;;;;;;;;;;;17.58;69.58;98510.56;5078952;28;20026;-65
2022/06/28 04:25:27;;;;;;;;;;;;;;;17.54;69.38;98514.03;5081448;28;19927;-66
2022/06/28 04:27:58;;;;;;;;;;;;;;;17.49;69.57;98521.69;5083081;28;19920;-66
2022/06/28 04:30:28;;;;;;;;;;;;;;;17.60;69.54;98519.28;5080387;28;19928;-66
2022/06/28 04:33:00;;;;;;;;;;;;;;;17.68;69.16;98521.91;5080065;28;19924;-66
2022/06/28 04:35:35;;;;;;;;;;;;;;;17.62;69.12;98528.78;5080818;28;20306;-67
2022/06/28 04:38:03;;;;;;;;;;;;;;;17.62;69.09;98523.28;5079857;28;20310;-67
2022/06/28 04:40:51;;;;;;;;;;;;;;;17.68;69.00;98523.88;5082183;28;20427;-66
2022/06/28 04:43:33;;;;;;;;;;;;;;;17.62;69.23;98522.50;5081892;28;20139;-65
2022/06/28 04:46:01;;;;;;;;;;;;;;;17.66;69.29;98515.97;5082240;28;19981;-66
2022/06/28 04:48:33;;;;;;;;;;;;;;;17.71;68.38;98515.75;5080035;28;20385;-65
2022/06/28 04:51:11;;;;;;;;;;;;;;;17.78;68.15;98513.25;5082162;28;19920;-63
2022/06/28 04:53:43;;;;;;;;;;;;;;;17.73;68.14;98515.44;5084405;28;20405;-66
2022/06/28 04:56:12;;;;;;;;;;;;;;;17.57;68.37;98515.28;5081582;28;20313;-66
2022/06/28 04:58:46;;;;;;;;;;;;;;;17.61;68.58;98513.44;5082079;28;19927;-67
2022/06/28 05:01:15;;;;;;;;;;;;;;;17.60;68.58;98511.84;5078376;28;20358;-66
2022/06/28 05:03:49;;;;;;;;;;;;;;;17.41;68.80;98512.41;5098193;28;19935;-66
2022/06/28 05:06:37;;;;;;;;;;;;;;;17.39;68.97;98513.91;5078801;28;20393;-66
2022/06/28 05:09:06;;;;;;;;;;;;;;;17.42;68.93;98514.03;5096810;28;19928;-67
2022/06/28 05:11:55;;;;;;;;;;;;;;;17.40;68.98;98521.00;5083258;28;20020;-66
2022/06/28 05:14:30;;;;;;;;;;;;;;;17.46;68.68;98522.38;5079638;28;19980;-64
2022/06/28 05:16:59;;;;;;;;;;;;;;;17.57;68.95;98518.03;5076665;28;20057;-67
2022/06/28 05:19:52;;;;;;;;;;;;;;;17.58;68.41;98521.56;5075225;28;19943;-65
2022/06/28 05:22:21;;;;;;;;;;;;;;;17.49;68.92;98527.97;5097417;28;19927;-60
2022/06/28 05:25:17;;;;;;;;;;;;;;;17.42;68.70;98516.78;5072968;28;19932;-67
2022/06/28 05:27:45;;;;;;;;;;;;;;;17.38;68.39;98526.03;5073662;28;19959;-64
2022/06/28 05:30:13;;;;;;;;;;;;;;;17.39;68.51;98522.13;5079664;28;19924;-66
2022/06/28 05:32:41;;;;;;;;;;;;;;;17.43;68.47;98523.88;5080411;28;20195;-67
2022/06/28 05:35:10;;;;;;;;;;;;;;;17.37;68.91;98527.97;5079351;28;20309;-61
2022/06/28 05:37:39;;;;;;;;;;;;;;;17.44;68.82;98522.72;5082191;28;20052;-58
2022/06/28 05:40:08;;;;;;;;;;;;;;;17.56;68.85;98524.66;5077322;28;20340;-65
2022/06/28 05:42:36;;;;;;;;;;;;;;;17.70;68.10;98524.34;5092044;28;19920;-66
2022/06/28 05:45:05;;;;;;;;;;;;;;;17.70;68.22;98527.88;5075183;28;19966;-67
2022/06/28 05:47:33;;;;;;;;;;;;;;;17.70;67.91;98524.34;5084400;28;19950;-67
2022/06/28 05:50:01;;;;;;;;;;;;;;;17.66;68.46;98537.16;5082740;28;19924;-66
2022/06/28 05:52:29;;;;;;;;;;;;;;;17.74;68.05;98539.03;5075429;28;20395;-68
2022/06/28 05:54:59;;;;;;;;;;;;;;;17.81;67.63;98539.25;5080783;28;19920;-68
2022/06/28 05:57:27;;;;;;;;;;;;;;;17.74;67.05;98537.09;5079333;28;19926;-67
2022/06/28 05:59:55;;;;;;;;;;;;;;;17.75;67.13;98549.69;5075510;28;19973;-68
2022/06/28 06:02:28;;;;;;;;;;;;;;;17.80;66.96;98545.91;5082190;28;19998;-51
2022/06/28 06:04:59;;;;;;;;;;;;;;;17.92;66.39;98537.66;5085940;28;20225;-67
2022/06/28 06:07:27;;;;;;;;;;;;;;;17.98;66.19;98538.22;5077295;28;19928;-62
2022/06/28 06:09:55;;;;;;;;;;;;;;;18.03;65.66;98532.50;5082783;28;20351;-65
2022/06/28 06:12:26;;;;;;;;;;;;;;;18.00;65.40;98538.66;5084258;28;20364;-67
2022/06/28 06:14:55;;;;;;;;;;;;;;;18.00;66.01;98542.25;5085371;28;19981;-66
2022/06/28 06:17:28;;;;;;;;;;;;;;;18.03;65.47;98538.78;5082212;28;19935;-54
2022/06/28 06:19:58;;;;;;;;;;;;;;;18.17;65.20;98541.19;5080625;28;20007;-66
2022/06/28 06:22:26;;;;;;;;;;;;;;;18.17;65.09;98537.63;5087080;28;19943;-66
2022/06/28 06:24:55;;;;;;;;;;;;;;;18.18;65.15;98539.25;5079465;28;19996;-65
2022/06/28 06:27:30;;;;;;;;;;;;;;;18.25;65.12;98534.75;5085688;28;19920;-65
2022/06/28 06:30:24;;;;;;;;;;;;;;;18.21;65.15;98533.81;5085738;28;20023;-65
2022/06/28 06:33:18;;;;;;;;;;;;;;;18.19;64.33;98530.63;5077395;28;19932;-67
2022/06/28 06:36:02;;;;;;;;;;;;;;;18.19;64.63;98519.63;5070371;28;19959;-66
2022/06/28 06:38:33;;;;;;;;;;;;;;;18.24;64.72;98518.59;5084844;28;20264;-58
2022/06/28 06:41:01;;;;;;;;;;;;;;;18.19;64.36;98510.59;5100511;28;19931;-66
2022/06/28 06:43:31;;;;;;;;;;;;;;;18.22;63.87;98505.19;5099082;28;19978;-65
2022/06/28 06:46:14;;;;;;;;;;;;;;;18.29;64.12;98497.16;5085408;28;20011;-64
2022/06/28 06:48:49;;;;;;;;;;;;;;;18.43;63.46;98496.78;5101453;28;19943;-65
2022/06/28 06:51:17;;;;;;;;;;;;;;;18.52;63.25;98489.16;5099632;28;19989;-65
2022/06/28 06:53:46;;;;;;;;;;;;;;;18.67;62.54;98498.63;5086108;28;20019;-66
2022/06/28 06:56:17;;;;;;;;;;;;;;;18.54;62.91;98508.09;5086896;28;19919;-68
2022/06/28 06:58:49;;;;;;;;;;;;;;;18.57;62.30;98512.88;5087874;28;19970;-66
2022/06/28 07:01:17;;;;;;;;;;;;;;;18.63;61.64;98494.97;5089425;28;19920;-66
2022/06/28 07:04:06;;;;;;;;;;;;;;;18.84;60.67;98506.59;5084663;28;20309;-63
2022/06/28 07:06:35;;;;;;;;;;;;;;;18.76;60.89;98502.06;5100207;28;19980;-63
2022/06/28 07:09:03;;;;;;;;;;;;;;;18.82;61.00;98514.44;5087993;28;19930;-66
2022/06/28 07:11:32;;;;;;;;;;;;;;;18.99;59.96;98501.50;5104266;28;20004;-65
2022/06/28 07:14:02;;;;;;;;;;;;;;;19.37;59.11;98500.91;5075121;28;20207;-63
2022/06/28 07:16:54;;;;;;;;;;;;;;;19.21;57.05;98500.09;5104281;27;20028;-61
2022/06/28 07:19:22;;;;;;;;;;;;;;;19.33;57.77;98506.34;5087504;28;19959;-56
2022/06/28 07:21:53;;;;;;;;;;;;;;;19.22;57.54;98508.00;5098186;28;19919;-53
2022/06/28 07:24:21;;;;;;;;;;;;;;;19.14;57.24;98509.00;5086144;28;20427;-66
2022/06/28 07:26:50;;;;;;;;;;;;;;;19.16;56.24;98512.19;5083954;28;20804;-66
2022/06/28 07:29:21;;;;;;;;;;;;;;;19.19;57.93;98511.47;5089488;28;20363;-63
2022/06/28 07:31:50;;;;;;;;;;;;;;;19.30;57.30;98520.81;5099391;28;19920;-66
2022/06/28 07:34:18;;;;;;;;;;;;;;;19.38;55.75;98524.56;5085899;28;20519;-66
2022/06/28 07:36:47;;;;;;;;;;;;;;;19.40;55.36;98526.97;5106780;27;19977;-68
2022/06/28 07:39:16;;;;;;;;;;;;;;;19.48;55.25;98524.03;5086682;28;19986;-68
2022/06/28 07:42:02;;;;;;;;;;;;;;;19.63;54.82;98519.72;5104507;28;19930;-67
2022/06/28 07:45:08;;;;;;;;;;;;;;;19.61;55.67;98511.00;5023170;28;19949;-66
2022/06/28 07:47:37;;;;;;;;;;;;;;;19.81;55.19;98507.16;5072659;28;19962;-58
2022/06/28 07:53:18;;;;;;;;;;;;;;;19.80;55.22;98494.53;5103965;28;19932;-67
2022/06/28 07:56:15;;;;;;;;;;;;;;;19.78;55.77;98494.09;5062750;28;20364;-67
2022/06/28 07:58:43;;;;;;;;;;;;;;;19.82;55.29;98497.75;5102801;28;19939;-67
2022/06/28 08:01:19;;;;;;;;;;;;;;;19.99;55.39;98499.31;5097807;28;19920;-65
2022/06/28 08:03:53;;;;;;;;;;;;;;;20.13;54.60;98490.53;5099033;28;19924;-62
2022/06/28 08:06:22;;;;;;;;;;;;;;;20.11;54.53;98485.38;5089763;27;19920;-66
2022/06/28 08:08:54;;;;;;;;;;;;;;;20.24;54.06;98493.53;5085344;28;19920;-65
2022/06/28 08:11:47;;;;;;;;;;;;;;;20.25;54.19;98501.47;5090149;28;19926;-54
2022/06/28 08:14:16;;;;;;;;;;;;;;;20.17;54.20;98498.91;5082806;28;19924;-66
2022/06/28 08:16:45;;;;;;;;;;;;;;;20.11;54.25;98507.44;5098757;28;20283;-66
2022/06/28 08:19:15;;;;;;;;;;;;;;;19.94;53.73;98505.09;5085916;28;20355;-65
2022/06/28 08:21:47;;;;;;;;;;;;;;;20.09;54.52;98522.78;5072896;28;20003;-65
2022/06/28 08:24:17;;;;;;;;;;;;;;;20.18;54.31;98523.34;5099680;28;19985;-64
2022/06/28 08:26:45;;;;;;;;;;;;;;;20.36;54.26;98526.53;5101582;28;20015;-65
2022/06/28 08:29:13;;;;;;;;;;;;;;;20.39;53.55;98523.03;5085419;28;20021;-65
2022/06/28 08:31:43;;;;;;;;;;;;;;;20.52;53.27;98521.00;5086115;28;20071;-66
2022/06/28 08:34:13;;;;;;;;;;;;;;;20.71;52.77;98512.69;5085442;28;20283;-65
2022/06/28 08:36:41;;;;;;;;;;;;;;;20.88;52.53;98512.25;5076230;28;19927;-66
2022/06/28 08:39:10;;;;;;;;;;;;;;;21.04;52.29;98497.53;5082054;28;20312;-58
2022/06/28 08:41:38;;;;;;;;;;;;;;;20.82;52.46;98488.84;5081470;28;19942;-66
2022/06/28 08:44:06;;;;;;;;;;;;;;;20.64;52.54;98476.66;5082128;28;19977;-66
2022/06/28 08:46:33;;;;;;;;;;;;;;;20.53;53.21;98481.97;5075716;28;20057;-66
2022/06/28 08:49:03;;;;;;;;;;;;;;;20.63;52.87;98480.59;5082701;28;20425;-65
2022/06/28 08:51:35;;;;;;;;;;;;;;;20.49;53.33;98474.78;5081025;28;20076;-66
2022/06/28 08:54:03;;;;;;;;;;;;;;;20.50;53.73;98473.59;5080643;28;19920;-66
2022/06/28 08:56:31;;;;;;;;;;;;;;;20.48;53.11;98479.50;5080935;28;19927;-65
2022/06/28 08:59:00;;;;;;;;;;;;;;;20.47;53.37;98475.16;5085360;28;20022;-62
2022/06/28 09:01:28;;;;;;;;;;;;;;;20.51;53.31;98475.22;5072273;28;19989;-66
2022/06/28 09:03:56;;;;;;;;;;;;;;;20.56;52.70;98477.66;5077491;28;20240;-63
2022/06/28 09:06:24;;;;;;;;;;;;;;;20.57;53.02;98468.25;5078861;28;20383;-65
2022/06/28 09:08:54;;;;;;;;;;;;;;;20.67;51.94;98470.44;5084530;28;19944;-65
2022/06/28 09:14:22;;;;;;;;;;;;;;;20.87;52.98;98457.38;5081364;28;19935;-59
2022/06/28 09:16:50;;;;;;;;;;;;;;;20.71;52.68;98463.00;5083594;28;20295;-65
2022/06/28 09:19:18;;;;;;;;;;;;;;;20.82;52.71;98465.97;5077787;28;19920;-66
2022/06/28 09:21:47;;;;;;;;;;;;;;;21.07;52.02;98466.44;5075891;28;20910;-65
2022/06/28 09:24:25;;;;;;;;;;;;;;;21.21;52.42;98466.69;5076791;28;19989;-65
2022/06/28 09:26:55;;;;;;;;;;;;;;;21.26;51.62;98465.59;5082932;28;19965;-65
2022/06/28 09:29:28;;;;;;;;;;;;;;;21.40;51.67;98454.78;5078550;28;19924;-65
2022/06/28 09:31:56;;;;;;;;;;;;;;;21.28;53.13;98463.25;5075957;28;19968;-66
2022/06/28 09:34:25;;;;;;;;;;;;;;;21.60;51.41;98477.63;5088446;28;19965;-64
2022/06/28 09:36:56;;;;;;;;;;;;;;;21.52;51.17;98473.13;5098662;28;19959;-55
2022/06/28 09:39:29;;;;;;;;;;;;;;;21.47;50.55;98467.94;5102615;28;19924;-65
2022/06/28 09:41:57;;;;;;;;;;;;;;;21.54;50.45;98465.28;5098811;28;19920;-59
2022/06/28 09:44:51;;;;;;;;;;;;;;;21.37;50.60;98461.06;5098199;28;19928;-66
2022/06/28 09:47:19;;;;;;;;;;;;;;;21.59;49.04;98451.16;5098804;28;20018;-65
2022/06/28 09:49:49;;;;;;;;;;;;;;;21.58;49.50;98435.75;5099336;28;19924;-65
2022/06/28 09:52:17;;;;;;;;;;;;;;;21.70;49.03;98439.09;5101793;28;19931;-65
2022/06/28 09:54:47;;;;;;;;;;;;;;;21.88;48.89;98436.56;5098081;28;20386;-66
2022/06/28 09:57:17;;;;;;;;;;;;;;;21.93;48.12;98430.72;5099811;28;19954;-65
2022/06/28 09:59:45;;;;;;;;;;;;;;;21.92;48.55;98437.44;5097638;28;20027;-64
2022/06/28 10:02:17;;;;;;;;;;;;;;;21.79;47.86;98433.31;5102902;28;19963;-63
2022/06/28 10:04:48;;;;;;;;;;;;;;;21.81;49.16;98422.66;5095647;28;19942;-64
2022/06/28 10:07:16;;;;;;;;;;;;;;;22.09;48.02;98418.66;5096770;28;19928;-58
2022/06/28 10:09:44;;;;;;;;;;;;;;;22.10;47.41;98423.84;5096529;28;19927;-64
2022/06/28 10:15:04;;;;;;;;;;;;;;;22.16;44.84;98402.22;5095818;28;19996;-63
2022/06/28 10:17:52;;;;;;;;;;;;;;;22.10;44.01;98404.47;5101633;28;19923;-63
2022/06/28 10:20:46;;;;;;;;;;;;;;;22.09;44.16;98407.59;5101330;28;19934;-64
2022/06/28 10:23:26;;;;;;;;;;;;;;;22.05;43.62;98409.53;5096019;28;19923;-56
2022/06/28 10:26:06;;;;;;;;;;;;;;;22.30;43.41;98405.13;5101071;28;20202;-64
2022/06/28 10:28:42;;;;;;;;;;;;;;;22.51;42.15;98412.09;5099337;28;19981;-64
2022/06/28 10:31:32;;;;;;;;;;;;;;;22.41;41.92;98419.09;5102272;28;19919;-63
2022/06/28 10:34:16;;;;;;;;;;;;;;;22.43;42.05;98425.06;5098531;28;19924;-62
2022/06/28 10:36:49;;;;;;;;;;;;;;;22.49;41.78;98415.25;5102235;28;19920;-63
2022/06/28 10:39:18;;;;;;;;;;;;;;;22.54;41.47;98411.34;5099749;28;20026;-63
2022/06/28 10:41:47;;;;;;;;;;;;;;;22.45;41.80;98412.44;5098543;28;19926;-63
2022/06/28 10:44:17;;;;;;;;;;;;;;;22.51;42.41;98409.34;5102722;28;19924;-63
2022/06/28 10:46:49;;;;;;;;;;;;;;;22.64;43.40;98400.41;5096156;28;19973;-63
2022/06/28 10:49:17;;;;;;;;;;;;;;;22.80;41.46;98414.03;5101233;28;20040;-62
2022/06/28 10:52:03;;;;;;;;;;;;;;;22.79;42.18;98401.31;5101000;28;20312;-64
2022/06/28 10:54:32;;;;;;;;;;;;;;;22.63;42.78;98398.78;5096895;28;20205;-59
2022/06/28 10:57:00;;;;;;;;;;;;;;;22.64;43.25;98394.88;5103980;28;20002;-61
2022/06/28 10:59:36;;;;;;;;;;;;;;;22.90;42.13;98396.72;5103693;28;19923;-62
2022/06/28 11:02:05;;;;;;;;;;;;;;;22.91;41.35;98392.00;5102367;28;19919;-63
2022/06/28 11:05:04;;;;;;;;;;;;;;;22.70;42.51;98401.66;5101553;28;20030;-63
2022/06/28 11:07:32;;;;;;;;;;;;;;;22.67;42.66;98396.06;5097115;28;19928;-62
2022/06/28 11:10:05;;;;;;;;;;;;;;;22.87;41.84;98385.59;5102305;28;20251;-63
2022/06/28 11:12:37;;;;;;;;;;;;;;;22.82;42.68;98386.72;5100478;28;20014;-63
2022/06/28 11:15:08;;;;;;;;;;;;;;;23.02;42.35;98378.25;5100434;27;19940;-63
2022/06/28 11:17:37;;;;;;;;;;;;;;;23.15;43.17;98376.75;5101943;28;19920;-64
2022/06/28 11:20:06;;;;;;;;;;;;;;;23.40;42.61;98376.94;5102589;28;19977;-63
2022/06/28 11:22:38;;;;;;;2.30;1.00;;;;;;;23.25;42.39;98365.75;5099833;28;20409;-63
2022/06/28 11:25:08;;;;;;;2.38;1.33;;;;;;;23.36;42.80;98365.81;5099777;27;21044;-61
2022/06/28 11:27:43;;;;;;;2.47;1.30;;;;;;;23.63;42.62;98371.97;5104518;27;20551;-63
2022/06/28 11:30:15;;;;;;;;;;;;;;;23.82;41.80;98368.13;5100508;28;20404;-63
2022/06/28 11:32:48;;;;;;;2.70;1.40;;;;;;;23.66;42.27;98364.88;5097142;28;19943;-62
2022/06/28 11:35:41;;;;;;;2.97;1.30;;;;;;;23.72;41.09;98368.88;5101514;28;20556;-63
2022/06/28 11:38:11;;;;;;;2.40;1.17;;;;;;;23.60;40.40;98350.56;5096305;28;20505;-63
2022/06/28 11:40:41;;;;;;;2.38;1.30;;;;;;;23.71;41.47;98356.19;5100184;28;20456;-62
2022/06/28 11:43:12;;;;;;;2.13;1.15;;;;;;;23.65;41.67;98341.91;5100039;28;20416;-62
2022/06/28 11:45:43;;;;;;;;;;;;;;;23.71;41.79;98334.78;5085935;28;20507;-63
2022/06/28 11:48:13;;;;;;;2.10;1.17;;;;;;;23.95;40.80;98333.31;5104319;28;20764;-62
2022/06/28 11:51:07;;;;;;;2.65;1.30;;;;;;;23.94;41.67;98326.16;5096738;28;20411;-59
2022/06/28 11:53:44;;;;;;;;;;;;;;;23.88;41.43;98330.50;5102216;28;20756;-62
2022/06/28 11:56:14;;;;;;;;;;;;;;;24.12;40.85;98329.00;5102546;28;20441;-63
2022/06/28 11:58:43;;;;;;;;;;;;;;;23.87;41.39;98325.34;5102295;28;20019;-59
2022/06/28 12:01:16;;;;;;;;;;;;;;;23.65;42.35;98325.25;5104125;28;19947;-58
2022/06/28 12:04:00;;;;;;;;;;;;;;;23.76;41.93;98316.97;5101660;28;19941;-61
2022/06/28 12:06:29;;;;;;;;;;;;;;;23.67;40.74;98310.97;5100521;28;19923;-62
2022/06/28 12:08:59;;;;;;;2.42;1.30;;;;;;;23.39;41.60;98309.63;5095550;28;20774;-62
2022/06/28 12:11:35;;;;;;;2.53;1.30;;;;;;;23.66;40.06;98293.56;5099179;28;20835;-61
2022/06/28 12:14:12;;;;;;;2.13;1.23;;;;;;;23.91;41.35;98307.50;5097411;28;20416;-62
2022/06/28 12:16:46;;;;;;;2.47;1.40;;;;;;;23.78;40.09;98295.19;5082714;28;20455;-60
2022/06/28 12:19:16;;;;;;;2.90;1.23;;;;;;;23.96;39.72;98289.69;5094922;27;20450;-62
2022/06/28 12:22:00;;;;;;;;;;;;;;;23.75;40.22;98284.84;5095716;28;20050;-62
2022/06/28 12:24:39;;;;;;;;;;;;;;;23.64;40.38;98287.56;5100547;28;19924;-62
2022/06/28 12:27:07;;;;;;;;;;;;;;;23.51;40.31;98294.63;5097547;28;20029;-61
2022/06/28 12:29:35;;;;;;;;;;;;;;;23.48;40.92;98298.16;5099451;28;19966;-62
2022/06/28 12:32:05;;;;;;;;;;;;;;;23.53;40.95;98289.47;5103817;27;20486;-63
2022/06/28 12:34:56;;;;;;;;;;;;;;;23.55;40.79;98298.22;5105075;28;19949;-63
2022/06/28 12:37:25;;;;;;;;;;;;;;;23.48;41.02;98296.19;5101496;28;20430;-60
2022/06/28 12:39:53;;;;;;;;;;;;;;;23.43;41.33;98302.09;5099702;28;19922;-59
2022/06/28 12:42:21;;;;;;;;;;;;;;;23.58;40.57;98302.19;5100892;28;20255;-63
2022/06/28 12:44:50;;;;;;;;;;;;;;;23.56;40.71;98293.47;5101265;28;20473;-61
2022/06/28 12:47:19;;;;;;;;;;;;;;;23.61;40.12;98285.56;5099227;28;19919;-61
2022/06/28 12:49:48;;;;;;;;;;;;;;;23.49;40.59;98283.13;5104966;28;20221;-62
2022/06/28 12:52:17;;;;;;;;;;;;;;;23.58;41.16;98280.00;5099920;28;19915;-61
2022/06/28 12:54:45;;;;;;;;;;;;;;;23.58;40.43;98272.47;5099536;28;19949;-61
2022/06/28 12:57:14;;;;;;;;;;;;;;;23.63;39.98;98271.34;5098507;28;19988;-61
2022/06/28 12:59:45;;;;;;;;;;;;;;;23.72;39.92;98264.25;5100361;28;19932;-60
2022/06/28 13:02:18;;;;;;;;;;;;;;;23.78;40.50;98267.44;5100552;28;19970;-61
2022/06/28 13:04:50;;;;;;;;;;;;;;;23.85;39.53;98269.44;5102897;28;19920;-61
2022/06/28 13:07:19;;;;;;;;;;;;;;;23.96;39.48;98262.72;5095384;28;20252;-61
2022/06/28 13:09:48;;;;;;;;;;;;;;;23.91;39.13;98260.34;5098640;28;19920;-61
2022/06/28 13:12:16;;;;;;;;;;;;;;;24.08;39.70;98258.03;5097762;28;19916;-62
2022/06/28 13:14:51;;;;;;;;;;;;;;;24.09;39.22;98254.84;5100051;28;19920;-61
2022/06/28 13:17:23;;;;;;;;;;;;;;;24.32;38.90;98254.50;5099503;28;19926;-52
2022/06/28 13:19:53;;;;;;;;;;;;;;;24.41;40.32;98254.94;5099087;27;19916;-60
2022/06/28 13:22:41;;;;;;;;;;;;;;;24.64;38.61;98256.53;5097503;28;19946;-61
2022/06/28 13:25:09;;;;;;;;;;;;;;;24.42;38.55;98256.53;5099182;28;20026;-61
2022/06/28 13:27:38;;;;;;;;;;;;;;;24.29;39.43;98245.00;5103946;28;20014;-61
2022/06/28 13:30:07;;;;;;;;;;;;;;;24.18;39.34;98240.59;5098154;28;20391;-61